createdAt,value
2019-03-29T00:00:38.325Z,0.00
2019-03-29T00:01:38.284Z,0.00
2019-03-29T00:02:38.275Z,0.00
2019-03-29T00:03:38.257Z,0.00
2019-03-29T00:04:38.267Z,0.00
2019-03-29T00:05:38.238Z,0.00
2019-03-29T00:06:38.313Z,0.00
2019-03-29T00:07:39.893Z,0.00
2019-03-29T00:08:38.215Z,0.00
2019-03-29T00:09:38.214Z,0.00
2019-03-29T00:10:38.188Z,0.00
2019-03-29T00:11:38.220Z,0.00
2019-03-29T00:12:38.182Z,0.00
2019-03-29T00:13:38.153Z,0.00
2019-03-29T00:14:38.158Z,0.00
2019-03-29T00:15:38.135Z,0.00
2019-03-29T00:16:38.125Z,0.00
2019-03-29T00:17:38.130Z,0.00
2019-03-29T00:18:38.097Z,0.00
2019-03-29T00:19:38.091Z,0.00
2019-03-29T00:20:38.079Z,0.00
2019-03-29T00:21:39.047Z,0.00
2019-03-29T00:22:38.089Z,0.00
2019-03-29T00:23:38.121Z,0.00
2019-03-29T00:24:38.052Z,0.00
2019-03-29T00:25:38.023Z,0.00
2019-03-29T00:26:38.011Z,0.00
2019-03-29T00:27:38.022Z,0.00
2019-03-29T00:28:37.996Z,0.00
2019-03-29T00:29:37.984Z,0.00
2019-03-29T05:00:37.314Z,64.00
2019-03-29T05:01:37.311Z,72.00
2019-03-29T05:02:37.286Z,84.00
2019-03-29T05:03:37.273Z,96.00
2019-03-29T05:04:37.267Z,112.00
2019-03-29T05:05:37.249Z,124.00
2019-03-29T05:06:37.361Z,136.00
2019-03-29T05:07:44.776Z,160.00
2019-03-29T05:08:37.243Z,172.00
2019-03-29T05:09:37.209Z,196.00
2019-03-29T05:10:37.198Z,216.00
2019-03-29T05:11:37.190Z,240.00
2019-03-29T05:12:37.195Z,264.00
2019-03-29T05:13:37.180Z,292.00
2019-03-29T05:14:37.164Z,320.00
2019-03-29T05:15:37.159Z,352.00
2019-03-29T05:16:37.156Z,384.00
2019-03-29T05:17:37.123Z,416.00
2019-03-29T05:18:37.122Z,452.00
2019-03-29T05:19:37.107Z,492.00
2019-03-29T05:20:37.095Z,532.00
2019-03-29T05:21:37.115Z,576.00
2019-03-29T05:22:37.082Z,620.00
2019-03-29T05:23:37.062Z,668.00
2019-03-29T05:24:37.052Z,724.00
2019-03-29T05:25:37.048Z,776.00
2019-03-29T05:26:37.033Z,828.00
2019-03-29T05:27:37.034Z,892.00
2019-03-29T05:28:37.050Z,956.00
2019-03-29T05:29:36.994Z,1020.00
2019-03-29T05:30:36.986Z,1092.00
2019-03-29T05:31:36.977Z,1160.00
2019-03-29T05:32:36.994Z,1232.00
2019-03-29T05:33:36.957Z,1312.00
2019-03-29T05:34:36.947Z,1392.00
2019-03-29T05:35:36.943Z,1472.00
2019-03-29T05:36:36.920Z,1556.00
2019-03-29T05:37:36.930Z,1640.00
2019-03-29T05:38:36.902Z,1724.00
2019-03-29T05:39:36.891Z,1804.00
2019-03-29T05:40:36.884Z,1892.00
2019-03-29T05:41:36.865Z,1984.00
2019-03-29T05:42:36.854Z,2076.00
2019-03-29T05:43:36.860Z,2264.00
2019-03-29T05:44:36.841Z,2956.00
2019-03-29T05:45:36.832Z,5476.00
2019-03-29T05:46:36.819Z,8056.00
2019-03-29T05:47:36.835Z,8980.00
2019-03-29T05:48:36.790Z,9644.00
2019-03-29T05:49:36.779Z,11072.00
2019-03-29T05:50:37.038Z,12896.00
2019-03-29T05:51:45.057Z,13984.00
2019-03-29T05:53:57.289Z,12768.00
2019-03-29T05:56:37.544Z,16064.00
2019-03-29T05:58:46.371Z,18432.00
2019-03-29T06:00:55.176Z,8752.00
2019-03-29T06:01:55.168Z,5292.00
2019-03-29T06:02:55.167Z,7080.00
2019-03-29T06:03:55.159Z,6352.00
2019-03-29T06:04:55.135Z,8276.00
2019-03-29T06:05:55.122Z,13024.00
2019-03-29T06:06:55.121Z,18336.00
2019-03-29T06:07:55.113Z,20960.00
2019-03-29T06:08:55.109Z,21984.00
2019-03-29T06:09:55.078Z,23136.00
2019-03-29T06:10:55.070Z,23584.00
2019-03-29T06:11:55.066Z,24224.00
2019-03-29T06:12:55.050Z,24512.00
2019-03-29T06:13:55.041Z,25280.00
2019-03-29T06:14:55.039Z,25952.00
2019-03-29T06:15:55.091Z,23392.00
2019-03-29T06:16:55.009Z,22944.00
2019-03-29T06:17:54.999Z,27296.00
2019-03-29T06:18:55.031Z,27232.00
2019-03-29T06:19:54.990Z,27200.00
2019-03-29T06:20:54.966Z,26880.00
2019-03-29T06:21:54.993Z,27104.00
2019-03-29T06:22:54.939Z,25952.00
2019-03-29T06:23:54.941Z,26080.00
2019-03-29T06:24:54.941Z,25024.00
2019-03-29T06:25:54.911Z,24416.00
2019-03-29T06:26:54.911Z,26720.00
2019-03-29T06:27:54.891Z,27616.00
2019-03-29T06:28:54.911Z,28288.00
2019-03-29T06:29:54.867Z,29120.00
2019-03-29T06:30:54.880Z,26144.00
2019-03-29T06:31:54.849Z,25056.00
2019-03-29T06:32:54.838Z,23680.00
2019-03-29T06:33:54.844Z,20864.00
2019-03-29T06:34:54.826Z,15040.00
2019-03-29T06:35:54.829Z,11408.00
2019-03-29T06:36:54.795Z,10464.00
2019-03-29T06:38:03.330Z,9628.00
2019-03-29T06:39:02.301Z,9068.00
2019-03-29T06:40:03.566Z,7552.00
2019-03-29T06:41:03.745Z,7012.00
2019-03-29T06:42:02.303Z,6708.00
2019-03-29T06:42:54.728Z,6616.00
2019-03-29T06:43:54.714Z,6296.00
2019-03-29T06:44:54.704Z,6452.00
2019-03-29T06:45:54.698Z,6380.00
2019-03-29T06:46:54.723Z,6156.00
2019-03-29T06:47:54.700Z,6212.00
2019-03-29T06:48:54.673Z,6296.00
2019-03-29T06:49:54.660Z,6196.00
2019-03-29T06:50:54.647Z,6160.00
2019-03-29T06:51:54.637Z,6124.00
2019-03-29T06:52:54.743Z,6344.00
2019-03-29T06:53:54.616Z,6900.00
2019-03-29T06:54:54.609Z,7520.00
2019-03-29T06:55:54.591Z,10472.00
2019-03-29T06:56:54.605Z,8964.00
2019-03-29T06:57:54.570Z,10180.00
2019-03-29T06:58:54.562Z,10260.00
2019-03-29T06:59:54.565Z,8468.00
2019-03-29T07:00:54.541Z,7204.00
2019-03-29T07:01:54.527Z,6752.00
2019-03-29T07:02:54.529Z,6716.00
2019-03-29T07:03:54.500Z,6500.00
2019-03-29T07:04:54.493Z,7000.00
2019-03-29T07:05:54.483Z,6708.00
2019-03-29T07:06:54.484Z,6204.00
2019-03-29T07:07:54.500Z,6324.00
2019-03-29T07:08:54.451Z,6292.00
2019-03-29T07:09:54.439Z,6504.00
2019-03-29T07:10:54.438Z,6428.00
2019-03-29T07:11:54.426Z,6368.00
2019-03-29T07:12:56.366Z,6328.00
2019-03-29T07:13:57.650Z,6284.00
2019-03-29T07:14:54.400Z,6136.00
2019-03-29T07:15:54.374Z,6120.00
2019-03-29T07:16:54.366Z,6188.00
2019-03-29T07:17:54.354Z,6268.00
2019-03-29T07:18:54.365Z,6380.00
2019-03-29T07:19:54.358Z,6340.00
2019-03-29T07:20:54.326Z,6224.00
2019-03-29T07:21:54.316Z,6216.00
2019-03-29T07:22:54.304Z,6440.00
2019-03-29T07:23:54.288Z,6636.00
2019-03-29T07:24:54.320Z,7524.00
2019-03-29T07:25:56.452Z,8792.00
2019-03-29T07:26:54.258Z,9016.00
2019-03-29T07:27:54.244Z,8860.00
2019-03-29T07:28:54.237Z,8596.00
2019-03-29T07:29:54.227Z,8076.00
2019-03-29T07:30:54.234Z,7620.00
2019-03-29T07:31:54.210Z,7588.00
2019-03-29T07:32:54.198Z,6836.00
2019-03-29T07:33:54.188Z,6952.00
2019-03-29T07:34:54.215Z,7360.00
2019-03-29T07:35:54.163Z,7308.00
2019-03-29T07:36:54.157Z,7568.00
2019-03-29T07:37:54.138Z,7808.00
2019-03-29T07:38:54.138Z,7840.00
2019-03-29T07:39:54.177Z,7880.00
2019-03-29T07:40:54.123Z,7616.00
2019-03-29T07:41:54.097Z,7580.00
2019-03-29T07:42:54.089Z,7432.00
2019-03-29T07:43:54.082Z,7444.00
2019-03-29T07:44:54.068Z,7548.00
2019-03-29T07:45:54.059Z,7504.00
2019-03-29T07:46:54.063Z,7468.00
2019-03-29T07:47:54.065Z,7436.00
2019-03-29T07:48:54.020Z,7408.00
2019-03-29T07:49:54.008Z,7416.00
2019-03-29T07:50:53.998Z,7396.00
2019-03-29T07:51:54.012Z,7348.00
2019-03-29T07:52:53.982Z,7304.00
2019-03-29T07:53:54.023Z,7308.00
2019-03-29T07:54:53.996Z,7308.00
2019-03-29T07:55:53.942Z,7324.00
2019-03-29T07:56:53.937Z,7368.00
2019-03-29T07:57:53.937Z,7320.00
2019-03-29T07:58:53.927Z,7300.00
2019-03-29T07:59:53.898Z,7288.00
2019-03-29T08:00:53.903Z,7268.00
2019-03-29T08:01:53.897Z,7256.00
2019-03-29T08:02:55.195Z,7236.00
2019-03-29T08:03:53.860Z,7208.00
2019-03-29T08:04:53.859Z,7168.00
2019-03-29T08:05:53.839Z,7156.00
2019-03-29T08:06:53.826Z,7120.00
2019-03-29T08:07:53.832Z,7096.00
2019-03-29T08:08:53.801Z,7064.00
2019-03-29T08:09:54.254Z,7028.00
2019-03-29T08:10:54.290Z,7012.00
2019-03-29T08:11:55.143Z,7020.00
2019-03-29T08:12:53.761Z,7044.00
2019-03-29T08:13:53.782Z,7032.00
2019-03-29T08:14:53.748Z,7028.00
2019-03-29T08:15:53.736Z,7008.00
2019-03-29T08:16:53.736Z,7004.00
2019-03-29T08:17:53.753Z,6992.00
2019-03-29T08:18:53.720Z,6980.00
2019-03-29T08:20:19.044Z,6964.00
2019-03-29T08:20:54.680Z,6972.00
2019-03-29T08:21:53.667Z,6952.00
2019-03-29T08:22:53.663Z,6928.00
2019-03-29T08:23:53.672Z,6924.00
2019-03-29T08:24:53.655Z,6924.00
2019-03-29T08:25:53.623Z,6904.00
2019-03-29T08:26:53.613Z,6828.00
2019-03-29T08:27:53.602Z,6780.00
2019-03-29T08:28:53.617Z,6728.00
2019-03-29T08:29:53.587Z,6716.00
2019-03-29T08:30:53.591Z,6636.00
2019-03-29T08:31:55.559Z,6704.00
2019-03-29T08:32:53.562Z,6580.00
2019-03-29T08:33:53.537Z,6576.00
2019-03-29T08:34:53.531Z,6568.00
2019-03-29T08:35:53.518Z,6572.00
2019-03-29T08:36:53.523Z,6592.00
2019-03-29T08:37:53.545Z,6640.00
2019-03-29T08:38:53.479Z,6716.00
2019-03-29T08:39:56.343Z,6732.00
2019-03-29T08:40:53.486Z,6652.00
2019-03-29T08:42:00.213Z,6676.00
2019-03-29T08:42:54.441Z,6700.00
2019-03-29T08:43:53.432Z,6688.00
2019-03-29T08:44:53.424Z,6704.00
2019-03-29T08:45:53.410Z,6660.00
2019-03-29T08:46:53.436Z,6688.00
2019-03-29T08:47:53.388Z,6740.00
2019-03-29T08:48:53.399Z,6676.00
2019-03-29T08:49:53.373Z,6680.00
2019-03-29T08:50:53.377Z,6664.00
2019-03-29T08:51:53.347Z,6660.00
2019-03-29T08:52:53.337Z,6628.00
2019-03-29T08:53:53.323Z,6656.00
2019-03-29T08:54:53.338Z,6644.00
2019-03-29T08:55:53.356Z,6624.00
2019-03-29T08:56:53.288Z,6636.00
2019-03-29T08:57:53.279Z,6608.00
2019-03-29T08:59:00.909Z,6596.00
2019-03-29T09:00:00.815Z,6608.00
2019-03-29T09:01:00.917Z,6628.00
2019-03-29T09:01:53.247Z,6616.00
2019-03-29T09:03:00.762Z,6604.00
2019-03-29T09:04:04.638Z,6612.00
2019-03-29T09:04:54.210Z,6576.00
2019-03-29T09:05:53.207Z,6572.00
2019-03-29T09:06:54.300Z,6604.00
2019-03-29T09:07:53.166Z,6596.00
2019-03-29T09:08:53.165Z,6564.00
2019-03-29T09:09:53.154Z,6556.00
2019-03-29T09:10:53.154Z,6580.00
2019-03-29T09:11:53.140Z,6568.00
2019-03-29T09:12:53.117Z,6568.00
2019-03-29T09:13:53.144Z,6588.00
2019-03-29T09:14:53.099Z,6584.00
2019-03-29T09:15:53.121Z,6580.00
2019-03-29T09:16:53.093Z,6584.00
2019-03-29T09:17:53.077Z,6596.00
2019-03-29T09:18:53.062Z,6592.00
2019-03-29T09:19:53.039Z,6612.00
2019-03-29T09:20:53.056Z,6636.00
2019-03-29T09:21:53.047Z,6616.00
2019-03-29T09:22:53.006Z,6644.00
2019-03-29T09:23:53.042Z,6656.00
2019-03-29T09:24:52.994Z,6660.00
2019-03-29T09:25:52.981Z,6656.00
2019-03-29T09:26:52.993Z,6688.00
2019-03-29T09:27:52.993Z,6672.00
2019-03-29T09:28:52.960Z,6716.00
2019-03-29T09:29:52.939Z,6708.00
2019-03-29T09:30:56.219Z,6740.00
2019-03-29T09:31:52.918Z,6760.00
2019-03-29T09:32:52.922Z,6760.00
2019-03-29T09:33:52.900Z,6752.00
2019-03-29T09:34:52.925Z,6772.00
2019-03-29T09:35:52.876Z,6780.00
2019-03-29T09:36:52.870Z,6824.00
2019-03-29T09:37:56.285Z,6820.00
2019-03-29T09:38:52.864Z,6812.00
2019-03-29T09:39:52.827Z,6780.00
2019-03-29T09:40:58.905Z,6756.00
2019-03-29T09:41:53.832Z,6784.00
2019-03-29T09:43:06.643Z,6840.00
2019-03-29T09:43:54.677Z,6876.00
2019-03-29T09:44:52.778Z,6824.00
2019-03-29T09:45:52.766Z,6836.00
2019-03-29T09:46:52.764Z,6860.00
2019-03-29T09:47:55.794Z,6888.00
2019-03-29T09:48:52.777Z,6932.00
2019-03-29T09:49:52.746Z,6960.00
2019-03-29T09:50:52.716Z,6940.00
2019-03-29T09:51:52.699Z,6928.00
2019-03-29T09:52:52.690Z,6936.00
2019-03-29T09:53:52.681Z,6892.00
2019-03-29T09:54:54.191Z,6888.00
2019-03-29T09:55:53.513Z,6892.00
2019-03-29T09:56:52.648Z,6904.00
2019-03-29T09:57:52.663Z,6916.00
2019-03-29T09:58:52.632Z,6904.00
2019-03-29T09:59:52.614Z,6932.00
2019-03-29T10:00:52.657Z,6956.00
2019-03-29T10:01:54.212Z,6884.00
2019-03-29T10:02:52.591Z,6840.00
2019-03-29T10:03:52.585Z,6600.00
2019-03-29T10:04:52.563Z,6720.00
2019-03-29T10:05:52.568Z,6612.00
2019-03-29T10:06:52.591Z,6652.00
2019-03-29T10:07:52.534Z,6648.00
2019-03-29T10:08:53.510Z,6640.00
2019-03-29T10:09:52.514Z,6632.00
2019-03-29T10:10:52.500Z,6616.00
2019-03-29T10:11:52.508Z,6608.00
2019-03-29T10:12:52.493Z,5164.00
2019-03-29T10:13:52.477Z,5352.00
2019-03-29T10:14:52.487Z,6636.00
2019-03-29T10:15:52.457Z,6672.00
2019-03-29T10:16:52.436Z,6700.00
2019-03-29T10:17:52.441Z,6628.00
2019-03-29T10:18:52.415Z,6708.00
2019-03-29T10:19:52.428Z,6568.00
2019-03-29T10:20:52.390Z,6600.00
2019-03-29T10:21:52.401Z,6632.00
2019-03-29T10:22:52.371Z,6676.00
2019-03-29T10:23:52.355Z,6688.00
2019-03-29T10:24:52.348Z,6684.00
2019-03-29T10:25:52.335Z,6704.00
2019-03-29T10:26:52.366Z,6684.00
2019-03-29T10:27:52.349Z,6712.00
2019-03-29T10:28:52.320Z,6720.00
2019-03-29T10:29:52.296Z,6732.00
2019-03-29T10:30:52.289Z,6716.00
2019-03-29T10:31:52.269Z,6644.00
2019-03-29T10:32:55.366Z,6700.00
2019-03-29T10:33:52.253Z,6684.00
2019-03-29T10:34:52.239Z,6688.00
2019-03-29T10:35:53.035Z,6724.00
2019-03-29T10:36:52.220Z,6740.00
2019-03-29T10:37:52.224Z,6764.00
2019-03-29T10:38:52.232Z,6760.00
2019-03-29T10:39:52.198Z,6740.00
2019-03-29T10:40:52.179Z,6712.00
2019-03-29T10:41:52.169Z,6764.00
2019-03-29T10:42:57.978Z,6764.00
2019-03-29T10:43:53.138Z,6772.00
2019-03-29T10:44:52.155Z,6744.00
2019-03-29T10:45:52.121Z,6732.00
2019-03-29T10:46:52.108Z,6764.00
2019-03-29T10:47:52.132Z,6816.00
2019-03-29T10:48:52.093Z,6876.00
2019-03-29T10:49:52.086Z,6868.00
2019-03-29T10:50:52.071Z,6968.00
2019-03-29T10:51:52.085Z,6940.00
2019-03-29T10:52:52.067Z,6952.00
2019-03-29T10:53:52.144Z,6844.00
2019-03-29T10:54:52.030Z,6868.00
2019-03-29T10:55:52.014Z,6892.00
2019-03-29T10:56:52.013Z,6900.00
2019-03-29T10:57:52.012Z,6900.00
2019-03-29T10:58:52.006Z,6900.00
2019-03-29T10:59:51.976Z,6980.00
2019-03-29T11:00:51.963Z,6960.00
2019-03-29T11:01:51.959Z,7032.00
2019-03-29T11:02:51.945Z,6956.00
2019-03-29T11:03:51.959Z,6932.00
2019-03-29T11:04:51.936Z,6980.00
2019-03-29T11:05:51.916Z,7060.00
2019-03-29T11:06:51.895Z,7084.00
2019-03-29T11:07:51.891Z,7020.00
2019-03-29T11:08:51.901Z,7004.00
2019-03-29T11:09:51.874Z,6956.00
2019-03-29T11:10:51.853Z,6944.00
2019-03-29T11:11:51.847Z,6572.00
2019-03-29T11:12:51.836Z,5132.00
2019-03-29T11:13:51.843Z,6896.00
2019-03-29T11:14:51.837Z,6920.00
2019-03-29T11:15:51.839Z,6896.00
2019-03-29T11:16:51.790Z,6936.00
2019-03-29T11:17:51.778Z,6948.00
2019-03-29T11:18:51.774Z,6992.00
2019-03-29T11:19:51.851Z,7008.00
2019-03-29T11:20:51.755Z,7044.00
2019-03-29T11:21:51.879Z,7104.00
2019-03-29T11:22:51.731Z,7184.00
2019-03-29T11:23:51.716Z,7228.00
2019-03-29T11:24:51.719Z,7188.00
2019-03-29T11:25:51.702Z,7180.00
2019-03-29T11:26:51.686Z,7248.00
2019-03-29T11:27:51.691Z,7344.00
2019-03-29T11:28:51.660Z,7448.00
2019-03-29T11:29:51.666Z,7480.00
2019-03-29T11:30:51.646Z,7540.00
2019-03-29T11:31:51.634Z,7548.00
2019-03-29T11:32:51.624Z,7540.00
2019-03-29T11:33:51.763Z,7592.00
2019-03-29T11:34:51.615Z,4364.00
2019-03-29T11:35:51.609Z,4968.00
2019-03-29T11:36:52.835Z,5576.00
2019-03-29T11:37:51.565Z,7716.00
2019-03-29T11:38:51.558Z,7732.00
2019-03-29T11:39:51.565Z,7792.00
2019-03-29T11:40:51.542Z,7968.00
2019-03-29T11:41:51.540Z,7868.00
2019-03-29T11:42:51.515Z,7832.00
2019-03-29T11:43:51.506Z,7632.00
2019-03-29T11:44:51.497Z,7592.00
2019-03-29T11:45:51.510Z,7576.00
2019-03-29T11:46:51.490Z,7544.00
2019-03-29T11:47:51.459Z,7528.00
2019-03-29T11:48:51.454Z,7380.00
2019-03-29T11:49:52.872Z,7328.00
2019-03-29T11:50:51.436Z,7228.00
2019-03-29T11:51:51.453Z,7144.00
2019-03-29T11:52:51.429Z,7212.00
2019-03-29T11:53:51.549Z,7204.00
2019-03-29T11:54:51.387Z,7292.00
2019-03-29T11:55:51.377Z,7248.00
2019-03-29T11:56:51.375Z,7192.00
2019-03-29T11:57:51.378Z,7184.00
2019-03-29T11:58:51.365Z,7088.00
2019-03-29T11:59:51.332Z,4124.00
2019-03-29T12:00:51.326Z,5488.00
2019-03-29T12:01:51.310Z,4684.00
2019-03-29T12:02:51.314Z,3808.00
2019-03-29T12:03:51.306Z,4004.00
2019-03-29T12:04:51.301Z,7124.00
2019-03-29T12:05:51.273Z,7208.00
2019-03-29T12:06:51.262Z,7220.00
2019-03-29T12:07:51.249Z,7196.00
2019-03-29T12:08:51.254Z,7068.00
2019-03-29T12:09:51.223Z,7044.00
2019-03-29T12:10:51.278Z,6996.00
2019-03-29T12:11:51.208Z,6904.00
2019-03-29T12:12:51.199Z,6844.00
2019-03-29T12:13:51.223Z,7196.00
2019-03-29T12:14:51.175Z,6840.00
2019-03-29T12:15:51.164Z,6852.00
2019-03-29T12:16:51.156Z,6836.00
2019-03-29T12:17:51.167Z,6860.00
2019-03-29T12:18:51.142Z,6860.00
2019-03-29T12:19:51.137Z,6872.00
2019-03-29T12:20:54.176Z,6872.00
2019-03-29T12:21:51.095Z,6848.00
2019-03-29T12:22:51.090Z,6844.00
2019-03-29T12:23:51.080Z,6796.00
2019-03-29T12:24:51.130Z,6776.00
2019-03-29T12:25:51.068Z,6820.00
2019-03-29T12:26:51.048Z,6852.00
2019-03-29T12:27:51.035Z,6788.00
2019-03-29T12:28:51.021Z,6760.00
2019-03-29T12:29:51.018Z,6812.00
2019-03-29T12:30:51.035Z,6824.00
2019-03-29T12:31:50.992Z,6784.00
2019-03-29T12:32:50.979Z,6744.00
2019-03-29T12:33:50.967Z,6676.00
2019-03-29T12:34:50.975Z,6640.00
2019-03-29T12:35:50.968Z,6700.00
2019-03-29T12:36:50.961Z,6616.00
2019-03-29T12:37:50.933Z,6704.00
2019-03-29T12:38:50.923Z,6768.00
2019-03-29T12:39:50.909Z,6800.00
2019-03-29T12:40:50.914Z,6740.00
2019-03-29T12:41:50.883Z,6648.00
2019-03-29T12:42:50.889Z,6624.00
2019-03-29T12:43:55.707Z,6632.00
2019-03-29T12:44:51.860Z,6632.00
2019-03-29T12:45:50.855Z,6620.00
2019-03-29T12:46:50.832Z,6596.00
2019-03-29T12:47:50.823Z,6644.00
2019-03-29T12:48:50.918Z,5852.00
2019-03-29T12:49:50.807Z,6484.00
2019-03-29T12:50:50.813Z,6476.00
2019-03-29T12:51:50.805Z,6572.00
2019-03-29T12:52:50.776Z,6508.00
2019-03-29T12:53:50.754Z,6252.00
2019-03-29T12:54:50.775Z,6564.00
2019-03-29T12:55:50.739Z,4632.00
2019-03-29T12:56:50.760Z,4512.00
2019-03-29T12:57:50.719Z,3676.00
2019-03-29T12:58:50.721Z,5608.00
2019-03-29T12:59:50.708Z,5124.00
2019-03-29T13:00:50.683Z,6596.00
2019-03-29T13:01:50.690Z,6544.00
2019-03-29T13:02:50.664Z,6556.00
2019-03-29T13:03:50.652Z,6448.00
2019-03-29T13:04:50.660Z,6388.00
2019-03-29T13:05:50.628Z,6344.00
2019-03-29T13:06:50.634Z,5684.00
2019-03-29T13:07:53.054Z,6312.00
2019-03-29T13:08:50.601Z,6392.00
2019-03-29T13:09:50.594Z,6512.00
2019-03-29T13:10:50.593Z,6432.00
2019-03-29T13:11:50.583Z,6420.00
2019-03-29T13:12:50.555Z,6452.00
2019-03-29T13:13:50.542Z,6432.00
2019-03-29T13:14:50.533Z,6420.00
2019-03-29T13:15:50.527Z,6456.00
2019-03-29T13:16:50.551Z,6400.00
2019-03-29T13:17:50.504Z,6428.00
2019-03-29T13:18:53.616Z,6568.00
2019-03-29T13:19:50.491Z,6384.00
2019-03-29T13:20:50.492Z,6332.00
2019-03-29T13:21:50.480Z,6352.00
2019-03-29T13:22:50.474Z,6384.00
2019-03-29T13:23:50.438Z,6348.00
2019-03-29T13:24:50.459Z,6388.00
2019-03-29T13:25:50.414Z,6368.00
2019-03-29T13:26:50.410Z,6376.00
2019-03-29T13:27:50.396Z,6360.00
2019-03-29T13:28:50.403Z,6296.00
2019-03-29T13:29:50.380Z,6264.00
2019-03-29T13:30:50.388Z,6264.00
2019-03-29T13:31:50.371Z,6300.00
2019-03-29T13:32:50.341Z,6300.00
2019-03-29T13:33:50.352Z,6264.00
2019-03-29T13:34:51.431Z,6292.00
2019-03-29T13:35:50.313Z,6288.00
2019-03-29T13:36:50.333Z,6296.00
2019-03-29T13:37:50.285Z,6296.00
2019-03-29T13:38:50.276Z,6276.00
2019-03-29T13:39:50.270Z,6260.00
2019-03-29T13:40:50.281Z,6272.00
2019-03-29T13:41:50.259Z,6248.00
2019-03-29T13:42:50.238Z,6220.00
2019-03-29T13:43:50.272Z,6164.00
2019-03-29T13:44:50.214Z,6184.00
2019-03-29T13:45:50.222Z,6200.00
2019-03-29T13:46:50.208Z,6216.00
2019-03-29T13:47:50.190Z,6220.00
2019-03-29T13:48:50.174Z,6224.00
2019-03-29T13:49:50.159Z,6228.00
2019-03-29T13:50:50.190Z,6208.00
2019-03-29T13:51:50.156Z,6212.00
2019-03-29T13:52:50.135Z,6188.00
2019-03-29T13:53:50.123Z,6200.00
2019-03-29T13:54:50.123Z,6184.00
2019-03-29T13:55:50.098Z,6168.00
2019-03-29T13:56:50.119Z,6104.00
2019-03-29T13:57:50.072Z,6108.00
2019-03-29T13:58:50.064Z,6076.00
2019-03-29T13:59:50.056Z,6072.00
2019-03-29T14:00:50.065Z,6052.00
2019-03-29T14:01:50.036Z,6012.00
2019-03-29T14:02:50.042Z,6040.00
2019-03-29T14:03:50.011Z,5960.00
2019-03-29T14:04:49.999Z,5984.00
2019-03-29T14:05:50.012Z,6044.00
2019-03-29T14:06:49.980Z,6036.00
2019-03-29T14:07:49.970Z,6052.00
2019-03-29T14:08:49.989Z,6036.00
2019-03-29T14:09:49.949Z,6004.00
2019-03-29T14:10:49.938Z,6008.00
2019-03-29T14:11:49.947Z,6028.00
2019-03-29T14:12:49.921Z,6044.00
2019-03-29T14:13:49.909Z,6036.00
2019-03-29T14:14:49.906Z,6024.00
2019-03-29T14:15:49.900Z,6028.00
2019-03-29T14:16:49.886Z,6012.00
2019-03-29T14:17:49.860Z,5988.00
2019-03-29T14:18:49.852Z,5928.00
2019-03-29T14:19:49.843Z,5932.00
2019-03-29T14:20:49.854Z,5988.00
2019-03-29T14:21:49.839Z,6008.00
2019-03-29T14:22:49.809Z,5992.00
2019-03-29T14:23:49.799Z,5960.00
2019-03-29T14:24:49.791Z,5940.00
2019-03-29T14:25:49.782Z,5912.00
2019-03-29T14:26:49.777Z,5908.00
2019-03-29T14:27:49.777Z,5904.00
2019-03-29T14:28:49.747Z,5896.00
2019-03-29T14:30:03.189Z,5892.00
2019-03-29T14:30:50.733Z,5896.00
2019-03-29T14:31:49.715Z,5888.00
2019-03-29T14:32:49.790Z,5856.00
2019-03-29T14:33:49.734Z,5828.00
2019-03-29T14:34:49.703Z,5856.00
2019-03-29T14:35:49.670Z,5828.00
2019-03-29T14:36:49.658Z,5824.00
2019-03-29T14:37:49.662Z,5808.00
2019-03-29T14:38:49.646Z,5820.00
2019-03-29T14:39:49.643Z,5804.00
2019-03-29T14:40:49.628Z,5780.00
2019-03-29T14:41:49.620Z,5732.00
2019-03-29T14:42:49.596Z,5720.00
2019-03-29T14:43:49.589Z,5684.00
2019-03-29T14:44:52.832Z,5668.00
2019-03-29T14:45:49.580Z,5672.00
2019-03-29T14:46:49.559Z,5676.00
2019-03-29T14:47:49.544Z,5656.00
2019-03-29T14:48:49.529Z,5684.00
2019-03-29T14:49:49.542Z,5688.00
2019-03-29T14:50:49.511Z,5688.00
2019-03-29T14:51:49.513Z,5668.00
2019-03-29T14:52:49.499Z,5644.00
2019-03-29T14:53:49.481Z,5648.00
2019-03-29T14:54:49.475Z,5624.00
2019-03-29T14:55:49.480Z,5640.00
2019-03-29T14:56:49.449Z,5620.00
2019-03-29T14:57:49.441Z,5592.00
2019-03-29T14:58:49.445Z,5584.00
2019-03-29T14:59:49.454Z,5548.00
2019-03-29T15:00:49.429Z,5528.00
2019-03-29T15:01:49.394Z,5528.00
2019-03-29T15:02:49.383Z,5516.00
2019-03-29T15:03:49.390Z,5512.00
2019-03-29T15:04:49.380Z,5504.00
2019-03-29T15:05:49.369Z,5496.00
2019-03-29T15:06:49.356Z,5476.00
2019-03-29T15:07:49.334Z,5464.00
2019-03-29T15:08:49.948Z,5460.00
2019-03-29T15:09:49.325Z,5460.00
2019-03-29T15:10:49.299Z,5424.00
2019-03-29T15:11:49.333Z,5416.00
2019-03-29T15:12:49.311Z,5416.00
2019-03-29T15:13:49.265Z,5396.00
2019-03-29T15:14:49.255Z,5372.00
2019-03-29T15:15:49.247Z,5360.00
2019-03-29T15:16:49.241Z,5344.00
2019-03-29T15:17:49.242Z,5332.00
2019-03-29T15:18:49.226Z,5312.00
2019-03-29T15:19:49.217Z,5296.00
2019-03-29T15:20:53.664Z,5264.00
2019-03-29T15:21:49.179Z,5240.00
2019-03-29T15:22:49.174Z,5228.00
2019-03-29T15:23:49.196Z,5204.00
2019-03-29T15:24:49.193Z,5184.00
2019-03-29T15:25:49.136Z,5176.00
2019-03-29T15:26:49.128Z,5168.00
2019-03-29T15:27:49.119Z,5152.00
2019-03-29T15:28:49.112Z,5144.00
2019-03-29T15:29:49.120Z,5108.00
2019-03-29T15:30:52.201Z,5080.00
2019-03-29T15:31:49.076Z,5080.00
2019-03-29T15:32:49.064Z,5056.00
2019-03-29T15:33:49.053Z,5040.00
2019-03-29T15:34:49.064Z,5028.00
2019-03-29T15:35:49.052Z,4996.00
2019-03-29T15:36:49.028Z,4960.00
2019-03-29T15:37:49.012Z,4936.00
2019-03-29T15:38:49.004Z,4920.00
2019-03-29T15:39:48.989Z,4900.00
2019-03-29T15:40:49.003Z,4884.00
2019-03-29T15:41:48.971Z,4864.00
2019-03-29T15:42:48.971Z,4832.00
2019-03-29T15:43:48.946Z,4804.00
2019-03-29T15:44:48.937Z,4788.00
2019-03-29T15:45:48.943Z,4772.00
2019-03-29T15:46:48.916Z,4748.00
2019-03-29T15:47:48.925Z,4728.00
2019-03-29T15:48:48.939Z,4720.00
2019-03-29T15:49:55.988Z,4708.00
2019-03-29T15:50:49.893Z,4676.00
2019-03-29T15:51:48.860Z,4648.00
2019-03-29T15:52:48.850Z,4636.00
2019-03-29T15:53:48.839Z,4604.00
2019-03-29T15:54:48.832Z,4592.00
2019-03-29T15:55:48.822Z,4572.00
2019-03-29T15:56:48.825Z,4548.00
2019-03-29T15:57:48.820Z,4532.00
2019-03-29T15:58:48.787Z,4504.00
2019-03-29T15:59:48.781Z,4472.00
2019-03-29T16:00:48.789Z,4444.00
2019-03-29T16:01:48.761Z,4420.00
2019-03-29T16:02:48.749Z,4400.00
2019-03-29T16:03:48.747Z,4376.00
2019-03-29T16:04:48.724Z,4352.00
2019-03-29T16:05:48.731Z,4328.00
2019-03-29T16:06:48.700Z,4308.00
2019-03-29T16:07:48.711Z,4292.00
2019-03-29T16:08:48.697Z,4260.00
2019-03-29T16:09:49.075Z,4232.00
2019-03-29T16:10:48.663Z,4204.00
2019-03-29T16:11:48.665Z,4184.00
2019-03-29T16:12:48.647Z,4160.00
2019-03-29T16:13:48.650Z,4132.00
2019-03-29T16:14:48.635Z,4104.00
2019-03-29T16:15:48.607Z,4088.00
2019-03-29T16:16:48.595Z,4064.00
2019-03-29T16:17:48.586Z,4048.00
2019-03-29T16:18:48.573Z,4016.00
2019-03-29T16:19:48.606Z,3980.00
2019-03-29T16:20:48.557Z,3940.00
2019-03-29T16:21:48.545Z,3900.00
2019-03-29T16:22:48.536Z,3868.00
2019-03-29T16:23:48.521Z,3844.00
2019-03-29T16:24:48.511Z,3808.00
2019-03-29T16:25:48.526Z,3780.00
2019-03-29T16:26:48.486Z,3736.00
2019-03-29T16:27:48.482Z,3700.00
2019-03-29T16:28:48.469Z,3668.00
2019-03-29T16:29:48.457Z,3616.00
2019-03-29T16:30:48.460Z,3564.00
2019-03-29T16:31:48.443Z,3504.00
2019-03-29T16:32:48.427Z,3448.00
2019-03-29T16:33:48.416Z,3392.00
2019-03-29T16:34:50.664Z,3336.00
2019-03-29T16:35:48.394Z,3280.00
2019-03-29T16:36:48.405Z,3220.00
2019-03-29T16:37:57.027Z,3180.00
2019-03-29T16:38:49.363Z,3120.00
2019-03-29T16:39:48.385Z,3072.00
2019-03-29T16:40:48.344Z,2992.00
2019-03-29T16:41:48.333Z,2956.00
2019-03-29T16:42:48.339Z,2904.00
2019-03-29T16:43:48.311Z,2852.00